PWSweather.com
Personal Weather Stations
Station Observations
CW3999
Hillsboro, OR 97123

Hillsboro, OR 97123

Lat: 45.4667, Lon: -122.951

Elevation: 155

Station Type: Davis Vantage Pro2

Latest ConditionsUpdated 1:37:05 AM PDT Wednesday, Jul 18, 2018
Currently Today's Max Today's Min Today's Average
Temperature 60.6°F15.9°C 64.2°F17.9°C 60.6°F15.9°C 62.5°F16.9°C
Dew Point 53.8°F12.1°C 55.4°F13.0°C 53.8°F12.1°C 54.6°F12.6°C
Winds Calm Calm 1.3 mph -2.1 kmh - - 0.1 mph 0.2 kmh
Wind Gusts -- 0.9 mph1.4 kmh - -
Humidity 78% 78% 73% 76%
Pressure 30.12 in1020.0 mb 30.12 in1020.0 mb 30.08 in1018.6 mb -
Hour Temp Dew Point Humidity Winds Wind Gusts Pressure Precip Precip Rate Daily Precip Total
01:37 AM 60.6°F15.9°C 53.8°F12.1°C 78% Calm Calm -- 30.12 in1020.0 mb - 0.00 in0.0 mm 0.00 in0.0 mm
01:32 AM 60.6°F15.9°C 53.8°F12.1°C 78% Calm Calm -- 30.11 in1019.6 mb - 0.00 in0.0 mm 0.00 in0.0 mm
01:27 AM 61.0°F16.1°C 54.1°F12.3°C 78% Calm Calm -- 30.11 in1019.6 mb - 0.00 in0.0 mm 0.00 in0.0 mm
01:22 AM 61.2°F16.2°C 54.3°F12.4°C 78% Calm Calm -- 30.11 in1019.6 mb - 0.00 in0.0 mm 0.00 in0.0 mm
01:17 AM 61.3°F16.3°C 54.1°F12.3°C 77% Calm Calm -- 30.11 in1019.6 mb - 0.00 in0.0 mm 0.00 in0.0 mm
01:12 AM 61.5°F16.4°C 54.0°F12.2°C 76% Calm Calm -- 30.11 in1019.6 mb - 0.00 in0.0 mm 0.00 in0.0 mm
01:07 AM 61.9°F16.6°C 54.3°F12.4°C 76% Calm Calm -- 30.11 in1019.6 mb - 0.00 in0.0 mm 0.00 in0.0 mm
01:02 AM 62.1°F16.7°C 54.3°F12.4°C 76% Calm Calm -- 30.10 in1019.3 mb - 0.00 in0.0 mm 0.00 in0.0 mm
12:57 AM 62.2°F16.8°C 54.5°F12.5°C 76% Calm Calm -- 30.10 in1019.3 mb - 0.00 in0.0 mm 0.00 in0.0 mm
12:52 AM 62.4°F16.9°C 54.7°F12.6°C 76% Calm Calm -- 30.10 in1019.3 mb - 0.00 in0.0 mm 0.00 in0.0 mm
12:47 AM 62.8°F17.1°C 54.7°F12.6°C 75% Calm Calm -- 30.10 in1019.3 mb - 0.00 in0.0 mm 0.00 in0.0 mm
12:42 AM 62.8°F17.1°C 55.0°F12.8°C 76% Calm Calm -- 30.10 in1019.3 mb - 0.00 in0.0 mm 0.00 in0.0 mm
12:37 AM 63.0°F17.2°C 54.9°F12.7°C 75% Calm Calm -- 30.09 in1019.0 mb - 0.00 in0.0 mm 0.00 in0.0 mm
12:32 AM 63.1°F17.3°C 55.0°F12.8°C 75% Calm Calm -- 30.09 in1019.0 mb - 0.00 in0.0 mm 0.00 in0.0 mm
12:27 AM 63.3°F17.4°C 55.2°F12.9°C 75% Calm Calm 0.9 mph1.4 kmh 30.09 in1019.0 mb - 0.00 in0.0 mm 0.00 in0.0 mm
12:22 AM 63.5°F17.5°C 55.0°F12.8°C 74% 0.2 mph NW0.3 kmh NW -- 30.09 in1019.0 mb - 0.00 in0.0 mm 0.00 in0.0 mm
12:17 AM 63.7°F17.6°C 55.2°F12.9°C 74% 0.4 mph NW0.6 kmh NW -- 30.09 in1019.0 mb - 0.00 in0.0 mm 0.00 in0.0 mm
12:12 AM 63.9°F17.7°C 55.4°F13.0°C 74% 0.2 mph NW0.3 kmh NW 0.9 mph1.4 kmh 30.08 in1018.6 mb - 0.00 in0.0 mm 0.00 in0.0 mm
12:07 AM 64.0°F17.8°C 55.2°F12.9°C 73% 0.4 mph NW0.6 kmh NW 0.9 mph1.4 kmh 30.08 in1018.6 mb - 0.00 in0.0 mm 0.00 in0.0 mm
12:02 AM 64.2°F17.9°C 55.4°F13.0°C 73% 1.3 mph NW2.1 kmh NW -- 30.08 in1018.6 mb - 0.00 in0.0 mm 0.00 in0.0 mm